Time;durP1;ratioP1;P1;durP2;ratioP2;P2;SDS_P1;SDS_P2;PMS_P1;PMS_P2;Temp;Humidity;BMP_temperature;BMP_pressure;BME280_temperature;BME280_humidity;BME280_pressure;Samples;Min_cycle;Max_cycle;Signal;HPM_P1;HPM_P2
2022/04/23 00:00:29;;;;;;;9.73;8.73;;;11.30;95.60;;;;;;5114462;28;20936;-56
2022/04/23 00:02:58;;;;;;;9.13;8.33;;;11.20;95.60;;;;;;5115223;28;20952;-57
2022/04/23 00:05:25;;;;;;;9.47;8.57;;;11.20;95.70;;;;;;5114651;28;20465;-54
2022/04/23 00:07:53;;;;;;;9.43;8.53;;;11.20;95.80;;;;;;5114223;28;20434;-55
2022/04/23 00:10:21;;;;;;;9.50;8.73;;;11.20;96.10;;;;;;5115238;28;20468;-56
2022/04/23 00:12:48;;;;;;;8.93;8.20;;;11.10;96.10;;;;;;5114869;28;20544;-57
2022/04/23 00:15:17;;;;;;;10.00;9.13;;;11.00;96.20;;;;;;5114113;28;20548;-56
2022/04/23 00:17:47;;;;;;;10.37;9.47;;;11.00;96.30;;;;;;5114834;28;20444;-55
2022/04/23 00:20:14;;;;;;;9.53;8.53;;;10.90;96.30;;;;;;5115563;28;20872;-55
2022/04/23 00:22:41;;;;;;;7.97;7.17;;;10.90;96.40;;;;;;5115649;28;20469;-54
2022/04/23 00:25:10;;;;;;;8.53;7.83;;;10.80;96.60;;;;;;5116504;28;20454;-55
2022/04/23 00:27:37;;;;;;;7.47;6.80;;;10.80;96.60;;;;;;5119166;28;20445;-55
2022/04/23 00:30:05;;;;;;;7.60;7.00;;;10.70;96.50;;;;;;5118422;28;20963;-56
2022/04/23 00:32:33;;;;;;;7.47;6.77;;;10.70;96.30;;;;;;5118328;28;20460;-54
2022/04/23 00:35:00;;;;;;;6.20;5.70;;;10.70;96.20;;;;;;5118192;28;20473;-55
2022/04/23 00:37:27;;;;;;;8.60;6.70;;;10.60;95.90;;;;;;5119387;28;20444;-55
2022/04/23 00:39:54;;;;;;;6.60;6.00;;;10.60;95.70;;;;;;5119423;28;20784;-59
2022/04/23 00:42:22;;;;;;;6.47;5.90;;;10.60;95.50;;;;;;5118537;28;20441;-58
2022/04/23 00:44:49;;;;;;;6.10;5.60;;;10.50;95.30;;;;;;5118101;28;20481;-58
2022/04/23 00:47:16;;;;;;;5.75;5.35;;;10.50;95.10;;;;;;5118222;28;20207;-57
2022/04/23 00:49:44;;;;;;;6.03;5.53;;;10.50;95.00;;;;;;5117851;28;20204;-57
2022/04/23 00:52:12;;;;;;;6.50;5.90;;;10.50;94.90;;;;;;5117577;28;20204;-54
2022/04/23 00:54:40;;;;;;;6.63;6.03;;;10.40;94.70;;;;;;5118087;28;20880;-57
2022/04/23 00:57:09;;;;;;;6.17;5.57;;;10.40;94.60;;;;;;5118176;28;20448;-57
2022/04/23 00:59:36;;;;;;;5.77;5.17;;;10.40;94.50;;;;;;5118109;28;20813;-58
2022/04/23 01:02:03;;;;;;;5.47;5.07;;;10.30;94.30;;;;;;5118628;28;20971;-55
2022/04/23 01:04:30;;;;;;;5.95;5.47;;;10.30;94.20;;;;;;5118533;28;20480;-54
2022/04/23 01:07:00;;;;;;;5.28;4.78;;;10.30;94.20;;;;;;5117754;28;20195;-55
2022/04/23 01:09:27;;;;;;;5.40;4.90;;;10.20;94.10;;;;;;5117157;28;20238;-54
2022/04/23 01:11:56;;;;;;;5.38;4.97;;;10.20;94.20;;;;;;5118277;28;20207;-56
2022/04/23 01:14:23;;;;;;;6.38;4.90;;;10.20;94.20;;;;;;5117505;28;20242;-55
2022/04/23 01:16:50;;;;;;;6.17;5.63;;;10.10;94.20;;;;;;5117431;28;20566;-56
2022/04/23 01:19:18;;;;;;;5.72;5.22;;;10.10;94.30;;;;;;5117282;28;20456;-56
2022/04/23 01:21:46;;;;;;;5.17;4.77;;;10.00;94.30;;;;;;5117760;28;20223;-56
2022/04/23 01:24:15;;;;;;;6.30;5.80;;;10.00;94.40;;;;;;5117603;28;20464;-55
2022/04/23 01:26:42;;;;;;;6.35;5.85;;;10.00;94.50;;;;;;5117626;28;20204;-56
2022/04/23 01:29:09;;;;;;;6.20;5.65;;;9.90;95.10;;;;;;5117219;28;20199;-55
2022/04/23 01:31:36;;;;;;;6.65;6.10;;;9.90;95.20;;;;;;5118091;28;20196;-56
2022/04/23 01:34:04;;;;;;;5.80;5.30;;;9.80;95.30;;;;;;5118645;28;20590;-56
2022/04/23 01:36:31;;;;;;;6.30;5.70;;;9.80;95.40;;;;;;5117611;28;20199;-56
2022/04/23 01:38:59;;;;;;;6.00;5.47;;;9.80;95.50;;;;;;5116756;28;20205;-55
2022/04/23 01:41:26;;;;;;;6.13;5.63;;;9.80;95.60;;;;;;5117098;27;20206;-55
2022/04/23 01:43:53;;;;;;;7.50;6.80;;;9.70;95.60;;;;;;5117561;28;20223;-55
2022/04/23 01:46:21;;;;;;;6.90;6.30;;;9.70;95.70;;;;;;5117400;28;20204;-56
2022/04/23 01:48:49;;;;;;;6.72;6.22;;;9.70;95.60;;;;;;5117029;28;20211;-55
2022/04/23 01:51:16;;;;;;;6.15;5.63;;;9.70;95.60;;;;;;5117125;28;20199;-55
2022/04/23 01:53:43;;;;;;;6.35;5.80;;;9.70;95.70;;;;;;5117706;28;20230;-55
2022/04/23 01:56:12;;;;;;;6.30;5.72;;;9.60;95.70;;;;;;5118694;28;20204;-56
2022/04/23 01:58:39;;;;;;;6.78;5.85;;;9.60;95.60;;;;;;5118494;28;20200;-55
2022/04/23 02:01:07;;;;;;;6.32;5.82;;;9.60;95.70;;;;;;5117240;28;20208;-56
2022/04/23 02:03:34;;;;;;;7.28;6.57;;;9.50;95.70;;;;;;5117357;28;20230;-55
2022/04/23 02:06:01;;;;;;;6.60;6.00;;;9.40;95.70;;;;;;5116687;28;20203;-55
2022/04/23 02:08:28;;;;;;;7.45;6.63;;;9.40;95.70;;;;;;5116630;28;20226;-55
2022/04/23 02:10:55;;;;;;;8.15;7.50;;;9.40;95.70;;;;;;5116262;28;20208;-54
2022/04/23 02:13:24;;;;;;;8.07;7.28;;;9.30;95.70;;;;;;5115698;28;20216;-55
2022/04/23 02:15:51;;;;;;;6.93;6.38;;;9.30;95.60;;;;;;5116013;28;20314;-55
2022/04/23 02:18:21;;;;;;;7.07;6.55;;;9.30;95.50;;;;;;5116126;28;20203;-55
2022/04/23 02:20:48;;;;;;;8.40;7.60;;;9.20;95.50;;;;;;5115883;28;20199;-55
2022/04/23 02:23:15;;;;;;;6.60;6.00;;;9.20;95.40;;;;;;5115828;28;20206;-55
2022/04/23 02:25:42;;;;;;;8.55;7.85;;;9.20;95.30;;;;;;5116903;28;20196;-55
2022/04/23 02:28:09;;;;;;;8.15;7.35;;;9.10;95.30;;;;;;5117542;28;20211;-55
2022/04/23 02:30:38;;;;;;;8.20;7.43;;;9.10;95.30;;;;;;5117120;28;20200;-55
2022/04/23 02:33:05;;;;;;;9.02;8.23;;;9.10;95.30;;;;;;5117307;28;20208;-55
2022/04/23 02:35:34;;;;;;;8.75;7.95;;;9.10;95.20;;;;;;5117236;28;20223;-55
2022/04/23 02:38:02;;;;;;;9.10;8.30;;;9.00;95.20;;;;;;5116256;28;20207;-55
2022/04/23 02:40:30;;;;;;;9.05;8.10;;;9.00;95.30;;;;;;5116050;28;20200;-55
2022/04/23 02:42:57;;;;;;;9.00;8.20;;;8.90;95.30;;;;;;5116042;28;20203;-59
2022/04/23 02:45:25;;;;;;;7.47;6.90;;;8.90;95.30;;;;;;5115728;28;20224;-55
2022/04/23 02:47:54;;;;;;;9.07;8.38;;;8.90;95.30;;;;;;5115855;28;20668;-54
2022/04/23 02:50:26;;;;;;;8.40;7.70;;;8.80;95.20;;;;;;5115930;28;20211;-55
2022/04/23 02:52:55;;;;;;;8.77;8.07;;;8.80;95.30;;;;;;5114993;28;20657;-55
2022/04/23 02:55:24;;;;;;;9.32;8.50;;;8.70;95.30;;;;;;5115069;28;20628;-56
2022/04/23 02:57:51;;;;;;;8.82;8.02;;;8.70;95.40;;;;;;5116613;28;20202;-56
2022/04/23 03:00:19;;;;;;;8.38;7.68;;;8.60;95.40;;;;;;5114606;28;20271;-56
2022/04/23 03:02:47;;;;;;;11.75;8.40;;;8.60;95.40;;;;;;5114602;28;20286;-56
2022/04/23 03:05:16;;;;;;;9.00;8.20;;;8.60;95.50;;;;;;5114929;28;20215;-57
2022/04/23 03:07:59;;;;;;;9.60;8.80;;;8.60;95.40;;;;;;5120472;28;20267;-50
2022/04/23 03:10:27;;;;;;;8.50;7.80;;;8.50;95.50;;;;;;5114585;28;20710;-55
2022/04/23 03:12:57;;;;;;;9.80;9.00;;;8.50;95.50;;;;;;5115349;28;20200;-56
2022/04/23 03:15:26;;;;;;;9.07;8.27;;;8.40;95.60;;;;;;5114533;28;20226;-55
2022/04/23 03:18:04;;;;;;;9.25;8.35;;;8.40;95.70;;;;;;5114390;28;20207;-54
2022/04/23 03:20:32;;;;;;;10.65;9.57;;;8.40;95.70;;;;;;5114659;28;20215;-54
2022/04/23 03:23:00;;;;;;;9.18;8.40;;;8.40;95.80;;;;;;5114503;27;20241;-55
2022/04/23 03:25:27;;;;;;;10.57;9.63;;;8.30;95.80;;;;;;5114075;28;20216;-54
2022/04/23 03:27:55;;;;;;;11.30;10.05;;;8.30;95.90;;;;;;5115202;28;20195;-56
2022/04/23 03:30:22;;;;;;;9.90;8.90;;;8.20;96.00;;;;;;5114278;28;20290;-56
2022/04/23 03:32:49;;;;;;;10.65;9.70;;;8.20;96.10;;;;;;5114397;28;20213;-54
2022/04/23 03:35:16;;;;;;;10.00;9.20;;;8.20;96.20;;;;;;5114287;28;20219;-55
2022/04/23 03:37:44;;;;;;;10.77;9.77;;;8.20;96.30;;;;;;5114395;28;20207;-55
2022/04/23 03:40:13;;;;;;;9.95;8.90;;;8.10;96.40;;;;;;5114176;28;20199;-54
2022/04/23 03:42:41;;;;;;;10.95;9.82;;;8.10;96.40;;;;;;5114372;28;20226;-54
2022/04/23 03:45:10;;;;;;;10.68;9.57;;;8.10;96.60;;;;;;5147164;22;20227;-60
2022/04/23 03:47:37;;;;;;;9.98;9.05;;;8.00;96.60;;;;;;5134125;27;20245;-60
2022/04/23 03:50:05;;;;;;;11.13;10.02;;;8.00;96.70;;;;;;5134177;27;20232;-61
2022/04/23 03:52:32;;;;;;;10.75;9.82;;;8.00;96.80;;;;;;5134115;27;20199;-61
2022/04/23 03:55:01;;;;;;;11.80;10.35;;;8.00;97.00;;;;;;5133973;27;20219;-61
2022/04/23 03:57:28;;;;;;;10.57;9.40;;;7.90;97.20;;;;;;5134190;27;20199;-61
2022/04/23 03:59:55;;;;;;;10.90;9.90;;;7.90;97.30;;;;;;5133835;27;20195;-61
2022/04/23 04:02:22;;;;;;;11.70;10.57;;;7.90;97.30;;;;;;5134316;27;20202;-61
2022/04/23 04:04:49;;;;;;;12.27;11.07;;;7.90;97.40;;;;;;5133888;27;20306;-61
2022/04/23 04:09:38;;;;;;;15.98;10.35;;;7.80;97.60;;;;;;5124408;27;20529;-61
2022/04/23 04:12:08;;;;;;;11.93;10.75;;;7.80;97.80;;;;;;5092161;28;20201;-62
2022/04/23 04:14:36;;;;;;;12.02;10.93;;;7.80;97.80;;;;;;5093487;28;20585;-60
2022/04/23 04:17:08;;;;;;;10.18;9.27;;;7.80;98.10;;;;;;5093751;28;20392;-60
2022/04/23 04:19:35;;;;;;;11.05;10.05;;;7.80;98.30;;;;;;5097459;28;20218;-61
2022/04/23 04:22:04;;;;;;;13.88;10.32;;;7.80;98.40;;;;;;5098845;28;20215;-61
2022/04/23 04:24:32;;;;;;;11.90;10.65;;;7.80;98.70;;;;;;5096332;28;20228;-61
2022/04/23 04:27:01;;;;;;;12.50;11.32;;;7.80;98.70;;;;;;5096812;28;20711;-60
2022/04/23 04:29:29;;;;;;;11.50;10.30;;;7.90;98.70;;;;;;5098988;28;20216;-61
2022/04/23 04:31:56;;;;;;;12.40;11.30;;;8.00;98.60;;;;;;5094483;28;20201;-61
2022/04/23 04:34:28;;;;;;;12.93;11.55;;;8.10;98.50;;;;;;5092064;28;20247;-60
2022/04/23 04:37:02;;;;;;;13.02;11.15;;;8.20;98.30;;;;;;5090342;28;20208;-60
2022/04/23 04:39:29;;;;;;;10.95;9.95;;;8.30;98.10;;;;;;5090246;28;20180;-62
2022/04/23 04:41:56;;;;;;;15.68;10.52;;;8.40;97.90;;;;;;5090026;28;20668;-60
2022/04/23 04:44:25;;;;;;;11.63;10.45;;;8.50;97.70;;;;;;5090338;28;20232;-61
2022/04/23 04:46:52;;;;;;;11.95;10.85;;;8.60;97.50;;;;;;5090135;28;20207;-61
2022/04/23 04:49:19;;;;;;;11.15;10.15;;;8.70;97.20;;;;;;5090377;28;20221;-60
2022/04/23 04:51:46;;;;;;;11.32;10.18;;;8.70;97.00;;;;;;5090262;28;20234;-61
2022/04/23 04:54:13;;;;;;;12.35;10.85;;;8.80;96.80;;;;;;5090198;28;20201;-61
2022/04/23 04:56:40;;;;;;;11.50;10.40;;;8.80;96.50;;;;;;5099028;28;20287;-60
2022/04/23 04:59:07;;;;;;;10.55;9.55;;;8.90;96.40;;;;;;5096438;28;20216;-60
2022/04/23 05:01:36;;;;;;;12.02;10.82;;;8.90;96.10;;;;;;5095147;28;20196;-61
2022/04/23 05:04:04;;;;;;;11.70;10.47;;;9.00;96.00;;;;;;5092721;28;20672;-60
2022/04/23 05:06:31;;;;;;;12.40;10.25;;;9.10;95.70;;;;;;5090119;28;20454;-60
2022/04/23 05:08:58;;;;;;;10.82;9.77;;;9.20;95.30;;;;;;5089894;28;20277;-60
2022/04/23 05:11:25;;;;;;;11.95;10.85;;;9.20;95.10;;;;;;5090403;28;20204;-60
2022/04/23 05:13:52;;;;;;;11.38;10.38;;;9.20;94.70;;;;;;5090977;28;20613;-60
2022/04/23 05:16:19;;;;;;;13.37;10.73;;;9.20;94.30;;;;;;5091849;28;20231;-60
2022/04/23 05:18:48;;;;;;;12.40;11.27;;;9.30;94.30;;;;;;5090206;28;20439;-61
2022/04/23 05:21:15;;;;;;;12.80;11.70;;;9.30;94.10;;;;;;5075997;28;20439;-61
2022/04/23 05:23:42;;;;;;;11.37;10.37;;;9.30;94.00;;;;;;5076069;28;20443;-61
2022/04/23 05:26:09;;;;;;;10.55;9.52;;;9.40;93.80;;;;;;5076241;28;20463;-60
2022/04/23 05:28:36;;;;;;;11.47;10.37;;;9.30;93.50;;;;;;5076010;28;20259;-62
2022/04/23 05:31:03;;;;;;;11.30;10.30;;;9.20;93.30;;;;;;5076317;28;20443;-60
2022/04/23 05:33:30;;;;;;;12.60;11.40;;;9.20;93.40;;;;;;5076401;28;20208;-61
2022/04/23 05:35:59;;;;;;;11.05;10.05;;;9.10;93.60;;;;;;5075943;28;20247;-62
2022/04/23 05:38:26;;;;;;;12.18;11.07;;;9.00;93.90;;;;;;5075886;28;20199;-61
2022/04/23 05:40:53;;;;;;;11.88;10.73;;;8.90;94.00;;;;;;5075977;28;20224;-60
2022/04/23 05:43:20;;;;;;;12.70;11.50;;;8.90;94.10;;;;;;5075927;28;20200;-60
2022/04/23 05:45:47;;;;;;;12.40;11.05;;;8.90;94.20;;;;;;5075819;28;20220;-60
2022/04/23 05:48:14;;;;;;;12.57;11.45;;;8.90;94.10;;;;;;5075063;28;20221;-59
2022/04/23 05:50:41;;;;;;;12.05;10.95;;;9.00;94.10;;;;;;5075807;28;20205;-60
2022/04/23 05:53:11;;;;;;;12.02;10.90;;;9.00;93.90;;;;;;5075444;28;20201;-61
2022/04/23 05:55:38;;;;;;;12.00;10.90;;;9.10;93.90;;;;;;5075443;28;20311;-60
2022/04/23 05:58:05;;;;;;;11.75;10.65;;;9.10;93.70;;;;;;5075412;28;20200;-61
2022/04/23 06:00:32;;;;;;;12.98;11.77;;;9.20;93.50;;;;;;5075107;28;20201;-59
2022/04/23 06:02:59;;;;;;;11.07;10.07;;;9.20;93.30;;;;;;5075323;28;20201;-59
2022/04/23 06:05:26;;;;;;;12.50;10.82;;;9.30;93.10;;;;;;5082401;28;20220;-62
2022/04/23 06:07:53;;;;;;;12.02;10.82;;;9.40;92.80;;;;;;5082385;28;20258;-61
2022/04/23 06:10:22;;;;;;;11.55;10.48;;;9.40;92.60;;;;;;5079929;28;20204;-60
2022/04/23 06:12:49;;;;;;;13.63;12.25;;;9.50;92.40;;;;;;5078571;28;20565;-61
2022/04/23 06:15:16;;;;;;;11.40;10.30;;;9.50;92.20;;;;;;5075564;28;20232;-61
2022/04/23 06:17:45;;;;;;;12.40;11.20;;;9.60;92.00;;;;;;5075074;28;20205;-61
2022/04/23 06:20:12;;;;;;;11.82;10.63;;;9.70;91.60;;;;;;5075358;28;20284;-59
2022/04/23 06:22:39;;;;;;;11.95;10.75;;;9.70;91.30;;;;;;5075054;28;20197;-60
2022/04/23 06:25:07;;;;;;;11.25;10.15;;;9.80;91.10;;;;;;5074771;28;20217;-61
2022/04/23 06:27:36;;;;;;;12.02;10.93;;;9.80;90.90;;;;;;5074429;28;20208;-60
2022/04/23 06:30:05;;;;;;;11.00;10.00;;;9.90;90.70;;;;;;5074647;28;20224;-60
2022/04/23 06:32:32;;;;;;;11.65;10.50;;;10.00;89.90;;;;;;5073770;28;20219;-60
2022/04/23 06:34:59;;;;;;;15.13;12.05;;;10.10;89.00;;;;;;5074416;28;20653;-60
2022/04/23 06:37:26;;;;;;;11.73;10.53;;;10.20;88.10;;;;;;5074413;28;20200;-61
2022/04/23 06:39:53;;;;;;;12.30;11.10;;;10.30;87.40;;;;;;5075803;28;20444;-62
2022/04/23 06:42:20;;;;;;;11.50;10.43;;;10.40;86.60;;;;;;5075963;28;20197;-61
2022/04/23 06:44:48;;;;;;;11.73;10.63;;;10.50;85.10;;;;;;5075552;28;20657;-61
2022/04/23 06:47:16;;;;;;;11.30;10.27;;;10.50;83.70;;;;;;5082877;28;20451;-60
2022/04/23 06:49:43;;;;;;;12.55;11.43;;;10.60;83.10;;;;;;5084277;28;20479;-61
2022/04/23 06:52:10;;;;;;;10.88;9.77;;;10.70;82.10;;;;;;5079379;28;20228;-61
2022/04/23 06:54:37;;;;;;;11.65;10.57;;;10.80;81.30;;;;;;5081362;28;20225;-60
2022/04/23 06:57:04;;;;;;;10.60;9.60;;;10.90;80.50;;;;;;5078905;28;20205;-61
2022/04/23 06:59:33;;;;;;;11.13;10.10;;;11.00;79.80;;;;;;5081444;28;20440;-61
2022/04/23 07:02:03;;;;;;;11.73;10.73;;;11.10;78.50;;;;;;5078049;28;20450;-62
2022/04/23 07:04:31;;;;;;;10.27;9.37;;;11.10;77.40;;;;;;5079268;28;20517;-60
2022/04/23 07:06:58;;;;;;;10.27;9.27;;;11.20;76.70;;;;;;5078427;28;20455;-62
2022/04/23 07:09:25;;;;;;;10.50;9.50;;;11.30;76.20;;;;;;5078588;28;20482;-61
2022/04/23 07:11:52;;;;;;;10.43;9.43;;;11.40;75.70;;;;;;5079405;28;20447;-61
2022/04/23 07:14:19;;;;;;;12.67;10.17;;;11.50;75.00;;;;;;5081996;28;20758;-61
2022/04/23 07:16:47;;;;;;;10.70;9.80;;;11.60;73.90;;;;;;5075868;28;20466;-60
2022/04/23 07:19:16;;;;;;;10.70;9.73;;;11.70;73.20;;;;;;5076057;28;20440;-61
2022/04/23 07:21:43;;;;;;;10.57;9.67;;;11.80;71.80;;;;;;5075682;28;20455;-60
2022/04/23 07:24:12;;;;;;;10.60;9.70;;;11.90;70.40;;;;;;5075608;28;20946;-61
2022/04/23 07:26:41;;;;;;;11.13;10.03;;;11.90;68.60;;;;;;5076418;28;20549;-61
2022/04/23 07:29:11;;;;;;;11.07;9.90;;;11.90;68.20;;;;;;5076110;28;20475;-62
2022/04/23 07:31:39;;;;;;;11.03;10.03;;;11.90;67.80;;;;;;5078006;28;20496;-61
2022/04/23 07:39:37;;;;;;;10.83;9.93;;;12.30;65.40;;;;;;5076953;28;20395;-62
2022/04/23 07:42:06;;;;;;;11.27;10.27;;;12.30;64.50;;;;;;5075937;28;20450;-61
2022/04/23 07:44:33;;;;;;;11.20;10.13;;;12.40;63.70;;;;;;5076052;28;20880;-61
2022/04/23 07:47:00;;;;;;;10.53;9.60;;;12.40;63.10;;;;;;5077142;28;20470;-61
2022/04/23 07:49:27;;;;;;;10.53;9.63;;;12.40;62.00;;;;;;5075189;28;20474;-61
2022/04/23 07:51:56;;;;;;;10.33;9.43;;;12.40;60.70;;;;;;5074480;28;20450;-61
2022/04/23 07:54:23;;;;;;;11.30;10.30;;;12.40;60.60;;;;;;5075004;28;20467;-61
2022/04/23 07:56:50;;;;;;;11.30;10.30;;;12.50;60.30;;;;;;5073877;28;20865;-61
2022/04/23 07:59:17;;;;;;;10.47;9.57;;;12.50;59.50;;;;;;5073993;28;20435;-62
2022/04/23 08:01:44;;;;;;;12.27;10.53;;;12.60;59.20;;;;;;5072970;28;20826;-60
2022/04/23 08:04:11;;;;;;;10.87;9.87;;;12.70;58.90;;;;;;5073160;28;20947;-62
2022/04/23 08:06:38;;;;;;;10.30;9.30;;;12.80;57.70;;;;;;5073250;28;20443;-61
2022/04/23 08:09:07;;;;;;;11.03;9.80;;;12.80;56.90;;;;;;5072761;28;20483;-60
2022/04/23 08:11:34;;;;;;;10.90;9.27;;;12.80;56.40;;;;;;5072737;28;20927;-61
2022/04/23 08:14:02;;;;;;;10.53;9.63;;;12.90;56.20;;;;;;5072688;28;20466;-62
2022/04/23 08:16:29;;;;;;;9.90;9.00;;;13.00;55.80;;;;;;5072711;28;20813;-62
2022/04/23 08:18:57;;;;;;;10.87;9.93;;;13.10;55.30;;;;;;5073130;28;20453;-61
2022/04/23 08:21:24;;;;;;;10.33;9.50;;;13.20;54.90;;;;;;5072727;28;20443;-60
2022/04/23 08:23:51;;;;;;;10.70;9.70;;;13.30;54.40;;;;;;5072611;28;20447;-62
2022/04/23 08:26:20;;;;;;;9.90;9.00;;;13.40;54.00;;;;;;5073363;28;20823;-60
2022/04/23 08:31:32;;;;;;;9.90;9.00;;;13.50;52.80;;;;;;5072655;28;20983;-60
2022/04/23 08:33:59;;;;;;;10.67;9.67;;;13.50;52.20;;;;;;5071904;28;20478;-61
2022/04/23 08:36:28;;;;;;;9.87;9.07;;;13.50;51.90;;;;;;5072271;28;20444;-60
2022/04/23 08:38:55;;;;;;;10.43;9.53;;;13.60;51.50;;;;;;5072767;28;20483;-59
2022/04/23 08:41:28;;;;;;;10.10;9.20;;;13.50;50.80;;;;;;5073106;28;20810;-59
2022/04/23 08:43:56;;;;;;;10.63;9.63;;;13.50;51.00;;;;;;5073969;28;20838;-59
2022/04/23 08:46:26;;;;;;;10.50;9.10;;;13.60;51.10;;;;;;5073100;28;20447;-60
2022/04/23 08:49:07;;;;;;;9.90;9.00;;;13.80;51.10;;;;;;5072713;28;20452;-61
2022/04/23 08:51:35;;;;;;;10.70;9.70;;;13.90;50.80;;;;;;5073641;28;20832;-61
2022/04/23 08:54:06;;;;;;;10.03;9.13;;;13.90;50.50;;;;;;5072935;28;20790;-61
2022/04/23 08:56:36;;;;;;;10.37;9.33;;;14.00;50.20;;;;;;5077098;28;20437;-61
2022/04/23 08:59:03;;;;;;;10.93;9.93;;;14.10;50.00;;;;;;5077528;28;20443;-61
2022/04/23 09:01:34;;;;;;;10.70;9.80;;;14.20;49.80;;;;;;5076635;28;20461;-60
2022/04/23 09:04:02;;;;;;;10.77;9.67;;;14.30;49.70;;;;;;5076328;28;20437;-61
2022/04/23 09:06:49;;;;;;;11.40;10.40;;;14.40;49.50;;;;;;5076050;28;20570;-62
2022/04/23 09:09:19;;;;;;;9.83;8.93;;;14.50;49.30;;;;;;5071160;28;20553;-61
2022/04/23 09:11:51;;;;;;;9.40;8.60;;;14.70;49.00;;;;;;5076393;28;20449;-63
2022/04/23 09:14:26;;;;;;;8.40;7.57;;;14.70;48.40;;;;;;5076279;28;20468;-63
2022/04/23 09:25:41;;;;;;;9.20;8.13;;;15.30;45.90;;;;;;5075658;28;20469;-62
2022/04/23 09:28:17;;;;;;;8.80;8.00;;;15.40;45.30;;;;;;5074363;28;20454;-61
2022/04/23 09:30:44;;;;;;;9.63;7.70;;;15.40;44.80;;;;;;5075902;28;20221;-62
2022/04/23 09:33:12;;;;;;;7.73;7.03;;;15.40;45.10;;;;;;5075501;28;20465;-61
2022/04/23 09:35:55;;;;;;;8.23;7.40;;;15.50;44.60;;;;;;5075659;28;20467;-62
2022/04/23 09:38:23;;;;;;;7.07;6.40;;;15.60;43.50;;;;;;5075364;28;20434;-61
2022/04/23 09:40:52;;;;;;;7.40;6.70;;;15.60;43.50;;;;;;5075895;28;20439;-60
2022/04/23 09:43:28;;;;;;;6.97;6.30;;;15.60;43.40;;;;;;5075465;28;20479;-61
2022/04/23 09:46:05;;;;;;;7.90;7.10;;;15.70;43.30;;;;;;5077075;28;20465;-60
2022/04/23 09:48:33;;;;;;;7.33;6.63;;;15.80;42.90;;;;;;5075069;28;21016;-60
2022/04/23 09:51:00;;;;;;;7.87;7.17;;;15.80;42.50;;;;;;5075422;28;21002;-60
2022/04/23 09:53:28;;;;;;;6.63;6.03;;;15.80;42.20;;;;;;5075165;28;20466;-61
2022/04/23 09:55:59;;;;;;;6.93;6.23;;;15.80;41.80;;;;;;5075531;28;20532;-60
2022/04/23 09:58:29;;;;;;;7.43;6.73;;;15.80;41.50;;;;;;5081109;28;20440;-60
2022/04/23 10:00:57;;;;;;;10.07;6.67;;;15.70;40.60;;;;;;5086844;28;20446;-61
2022/04/23 10:03:29;;;;;;;6.90;6.30;;;15.60;40.60;;;;;;5086525;28;20938;-61
2022/04/23 10:05:56;;;;;;;7.40;6.70;;;15.60;40.90;;;;;;5084477;28;20514;-61
2022/04/23 10:08:25;;;;;;;6.63;6.07;;;15.70;40.70;;;;;;5084078;28;20461;-63
2022/04/23 10:10:55;;;;;;;6.23;5.73;;;15.70;40.30;;;;;;5084511;28;20482;-61
2022/04/23 10:13:25;;;;;;;6.17;5.63;;;15.70;40.20;;;;;;5085649;28;20447;-60
2022/04/23 10:15:54;;;;;;;6.80;6.20;;;15.80;40.50;;;;;;5086339;28;20471;-60
2022/04/23 10:18:22;;;;;;;7.17;6.37;;;15.90;40.40;;;;;;5083703;28;20478;-62
2022/04/23 10:21:00;;;;;;;7.13;6.53;;;16.00;40.20;;;;;;5087609;28;20508;-61
2022/04/23 10:23:44;;;;;;;6.30;5.80;;;16.00;40.30;;;;;;5086064;28;20733;-60
2022/04/23 10:26:43;;;;;;;7.60;7.00;;;16.10;40.40;;;;;;5086055;28;20520;-63
2022/04/23 10:29:11;;;;;;;7.60;7.00;;;16.00;40.00;;;;;;5086451;28;20508;-62
2022/04/23 10:31:41;;;;;;;6.80;6.20;;;15.90;39.80;;;;;;5087060;28;20491;-62
2022/04/23 10:34:33;;;;;;;8.23;7.40;;;15.80;39.90;;;;;;5087515;28;20450;-62
2022/04/23 10:37:20;;;;;;;7.10;6.20;;;15.80;39.90;;;;;;5086727;28;20434;-61
2022/04/23 10:40:15;;;;;;;7.30;6.70;;;15.80;39.90;;;;;;5084750;28;20792;-61
2022/04/23 10:43:09;;;;;;;7.23;6.53;;;15.80;39.80;;;;;;5080914;28;20427;-61
2022/04/23 10:45:38;;;;;;;7.20;6.60;;;15.80;39.90;;;;;;5077782;28;20859;-62
2022/04/23 10:48:26;;;;;;;7.63;6.93;;;15.90;40.00;;;;;;5078712;28;20491;-61
2022/04/23 10:51:02;;;;;;;6.73;6.07;;;16.10;40.20;;;;;;5077229;28;20574;-62
2022/04/23 10:53:29;;;;;;;7.87;6.13;;;16.30;40.20;;;;;;5076567;28;20883;-62
2022/04/23 10:56:10;;;;;;;6.90;6.17;;;16.50;39.90;;;;;;5075415;28;20837;-62
2022/04/23 10:58:40;;;;;;;6.20;5.60;;;16.60;39.10;;;;;;5075322;28;20447;-62
2022/04/23 11:01:27;;;;;;;6.20;5.60;;;16.60;39.30;;;;;;5074225;28;20439;-61
2022/04/23 11:04:11;;;;;;;7.40;6.70;;;16.70;39.50;;;;;;5074467;28;20536;-62
2022/04/23 11:12:54;;;;;;;6.00;5.47;;;16.80;38.80;;;;;;5012820;28;20424;-61
2022/04/23 11:15:21;;;;;;;5.20;4.70;;;16.80;38.50;;;;;;5061632;28;20589;-61
2022/04/23 11:17:58;;;;;;;6.00;5.50;;;16.80;38.40;;;;;;5074697;28;20443;-61
2022/04/23 11:20:35;;;;;;;7.50;5.60;;;16.90;38.30;;;;;;5076458;28;20432;-60
2022/04/23 11:23:04;;;;;;;6.30;5.27;;;16.90;38.10;;;;;;5074646;28;20442;-58
2022/04/23 11:25:32;;;;;;;7.17;6.57;;;17.00;38.30;;;;;;5074681;28;20471;-61
2022/04/23 11:28:14;;;;;;;5.67;5.27;;;17.20;38.20;;;;;;5074840;28;20471;-63
2022/04/23 11:30:41;;;;;;;6.53;5.93;;;17.20;38.00;;;;;;5074933;28;20535;-61
2022/04/23 11:33:13;;;;;;;6.03;5.50;;;17.30;38.00;;;;;;5075702;28;20455;-60
2022/04/23 11:35:40;;;;;;;5.67;5.17;;;17.40;38.10;;;;;;5076008;28;20504;-63
2022/04/23 11:38:19;;;;;;;6.63;5.93;;;17.40;38.00;;;;;;5074929;28;20451;-63
2022/04/23 11:40:46;;;;;;;7.10;6.50;;;17.50;37.90;;;;;;5075412;28;20428;-62
2022/04/23 11:43:28;;;;;;;6.77;6.17;;;17.50;37.80;;;;;;5075039;28;20793;-62
2022/04/23 11:45:57;;;;;;;7.60;6.90;;;17.70;38.10;;;;;;5074919;28;20516;-63
2022/04/23 11:48:24;;;;;;;6.60;5.97;;;18.30;37.70;;;;;;5077292;28;20443;-61
2022/04/23 11:50:52;;;;;;;6.23;5.63;;;18.70;36.90;;;;;;5080555;28;20479;-63
2022/04/23 11:53:21;;;;;;;6.73;6.07;;;19.30;36.60;;;;;;5080091;28;20453;-62
2022/04/23 11:55:50;;;;;;;7.17;6.47;;;19.80;35.80;;;;;;5081210;28;20465;-62
2022/04/23 11:58:21;;;;;;;7.60;6.90;;;19.90;34.70;;;;;;5076584;28;20458;-60
2022/04/23 12:00:48;;;;;;;7.87;6.70;;;20.00;34.60;;;;;;5075100;28;20912;-62
2022/04/23 12:03:25;;;;;;;6.77;6.13;;;20.10;34.40;;;;;;5076239;28;20500;-62
2022/04/23 12:05:58;;;;;;;11.50;7.20;;;20.10;34.00;;;;;;5076664;28;20468;-62
2022/04/23 12:08:27;;;;;;;6.37;5.77;;;20.00;33.80;;;;;;5079437;28;20513;-64
2022/04/23 12:10:54;;;;;;;6.67;5.97;;;20.00;33.70;;;;;;5077863;28;20491;-62
2022/04/23 12:13:21;;;;;;;5.60;5.10;;;20.10;33.70;;;;;;5079095;28;20445;-62
2022/04/23 12:15:48;;;;;;;5.60;5.10;;;20.40;33.70;;;;;;5079089;28;20476;-62
2022/04/23 12:18:17;;;;;;;5.90;5.30;;;20.70;33.40;;;;;;5078324;28;20810;-62
2022/04/23 12:20:44;;;;;;;6.40;5.77;;;20.90;33.20;;;;;;5078927;28;20466;-62
2022/04/23 12:23:12;;;;;;;6.40;5.80;;;20.90;33.30;;;;;;5078061;28;20934;-62
2022/04/23 12:25:41;;;;;;;6.07;5.23;;;20.60;33.40;;;;;;5076022;28;20459;-63
2022/04/23 12:42:00;;;;;;;5.87;5.37;;;18.60;36.20;;;;;;5083615;28;20427;-60
2022/04/23 12:44:34;;;;;;;5.70;5.20;;;18.60;36.80;;;;;;5082992;28;20487;-62
2022/04/23 12:47:03;;;;;;;6.93;6.23;;;18.70;36.30;;;;;;5083319;28;20434;-62
2022/04/23 12:49:46;;;;;;;6.30;5.70;;;18.70;36.40;;;;;;5084030;28;20440;-62
2022/04/23 12:52:16;;;;;;;6.30;5.80;;;18.70;36.50;;;;;;5085118;28;20466;-60
2022/04/23 12:55:13;;;;;;;5.67;5.17;;;18.80;36.60;;;;;;5092114;28;20566;-60
2022/04/23 12:57:42;;;;;;;7.37;6.23;;;18.80;36.60;;;;;;5089561;28;20441;-60
2022/04/23 13:00:12;;;;;;;6.47;5.87;;;18.70;35.80;;;;;;5081749;28;20440;-62
2022/04/23 13:02:40;;;;;;;5.83;5.33;;;18.60;35.90;;;;;;5079377;28;20443;-60
2022/04/23 13:05:09;;;;;;;5.73;5.27;;;18.60;35.90;;;;;;5080928;28;20518;-60
2022/04/23 13:10:22;;;;;;;5.40;4.90;;;18.40;35.70;;;;;;5081807;28;20476;-61
2022/04/23 13:12:50;;;;;;;4.60;4.20;;;18.20;35.70;;;;;;5083349;28;20448;-61
2022/04/23 13:15:17;;;;;;;4.77;4.40;;;18.10;35.60;;;;;;5085800;28;20467;-61
2022/04/23 13:17:46;;;;;;;5.63;5.17;;;18.20;35.90;;;;;;5086004;28;20448;-60
2022/04/23 13:20:14;;;;;;;5.80;5.30;;;18.30;35.80;;;;;;5086543;28;20449;-60
2022/04/23 13:22:43;;;;;;;4.67;4.27;;;18.40;35.70;;;;;;5085107;28;20441;-61
2022/04/23 13:25:13;;;;;;;5.30;4.80;;;18.40;35.50;;;;;;5082654;28;20465;-61
2022/04/23 13:27:40;;;;;;;4.60;4.30;;;18.50;35.30;;;;;;5081421;28;20453;-60
2022/04/23 13:30:10;;;;;;;5.57;5.10;;;18.60;35.10;;;;;;5084040;28;20448;-61
2022/04/23 13:32:39;;;;;;;5.53;5.10;;;18.60;35.30;;;;;;5081872;28;20447;-62
2022/04/23 13:35:08;;;;;;;5.30;4.90;;;18.70;35.40;;;;;;5075183;28;20465;-61